sensor_id;sensor_type;location;lat;lon;timestamp;pressure;altitude;pressure_sealevel;temperature;humidity
12471;BME280;36499;46.484;13.832;2023-04-15T00:01:08;91889.91;;;5.31;92.78
12471;BME280;36499;46.484;13.832;2023-04-15T00:03:37;91892.88;;;5.35;92.07
12471;BME280;36499;46.484;13.832;2023-04-15T00:06:04;91893.97;;;5.46;91.90
12471;BME280;36499;46.484;13.832;2023-04-15T00:08:32;91889.91;;;5.56;91.60
12471;BME280;36499;46.484;13.832;2023-04-15T00:10:59;91893.22;;;5.63;91.38
12471;BME280;36499;46.484;13.832;2023-04-15T00:13:27;91887.63;;;5.66;90.72
12471;BME280;36499;46.484;13.832;2023-04-15T00:15:55;91882.25;;;5.68;91.30
12471;BME280;36499;46.484;13.832;2023-04-15T00:18:22;91878.84;;;5.67;91.02
12471;BME280;36499;46.484;13.832;2023-04-15T00:20:51;91877.22;;;5.73;91.02
12471;BME280;36499;46.484;13.832;2023-04-15T00:23:18;91879.38;;;5.76;90.84
12471;BME280;36499;46.484;13.832;2023-04-15T00:25:45;91881.75;;;5.77;90.15
12471;BME280;36499;46.484;13.832;2023-04-15T00:28:12;91879.03;;;5.72;90.49
12471;BME280;36499;46.484;13.832;2023-04-15T00:30:39;91884.97;;;5.73;90.25
12471;BME280;36499;46.484;13.832;2023-04-15T00:33:06;91887.22;;;5.69;90.10
12471;BME280;36499;46.484;13.832;2023-04-15T00:35:34;91879.44;;;5.69;90.83
12471;BME280;36499;46.484;13.832;2023-04-15T00:38:04;91875.06;;;5.70;90.85
12471;BME280;36499;46.484;13.832;2023-04-15T00:40:32;91876.63;;;5.71;90.52
12471;BME280;36499;46.484;13.832;2023-04-15T00:42:59;91882.03;;;5.69;90.47
12471;BME280;36499;46.484;13.832;2023-04-15T00:45:27;91883.47;;;5.65;90.48
12471;BME280;36499;46.484;13.832;2023-04-15T00:47:54;91886.63;;;5.67;90.96
12471;BME280;36499;46.484;13.832;2023-04-15T00:50:21;91894.72;;;5.71;90.58
12471;BME280;36499;46.484;13.832;2023-04-15T00:52:48;91894.59;;;5.66;90.63
12471;BME280;36499;46.484;13.832;2023-04-15T00:55:18;91893.00;;;5.65;90.86
12471;BME280;36499;46.484;13.832;2023-04-15T00:57:45;91902.13;;;5.67;90.47
12471;BME280;36499;46.484;13.832;2023-04-15T01:00:13;91902.13;;;5.67;90.89
12471;BME280;36499;46.484;13.832;2023-04-15T01:02:41;91903.34;;;5.65;90.55
12471;BME280;36499;46.484;13.832;2023-04-15T01:05:08;91905.56;;;5.61;90.15
12471;BME280;36499;46.484;13.832;2023-04-15T01:07:35;91909.75;;;5.62;90.50
12471;BME280;36499;46.484;13.832;2023-04-15T01:10:04;91908.72;;;5.63;90.73
12471;BME280;36499;46.484;13.832;2023-04-15T01:12:33;91911.72;;;5.60;90.80
12471;BME280;36499;46.484;13.832;2023-04-15T01:15:01;91914.94;;;5.56;91.12
12471;BME280;36499;46.484;13.832;2023-04-15T01:17:28;91912.59;;;5.54;90.92
12471;BME280;36499;46.484;13.832;2023-04-15T01:19:56;91908.78;;;5.57;90.81
12471;BME280;36499;46.484;13.832;2023-04-15T01:22:25;91913.66;;;5.47;91.50
12471;BME280;36499;46.484;13.832;2023-04-15T01:25:00;91916.59;;;5.50;91.65
12471;BME280;36499;46.484;13.832;2023-04-15T01:27:31;91914.94;;;5.56;91.47
12471;BME280;36499;46.484;13.832;2023-04-15T01:29:59;91914.56;;;5.59;91.72
12471;BME280;36499;46.484;13.832;2023-04-15T01:32:26;91912.97;;;5.58;91.32
12471;BME280;36499;46.484;13.832;2023-04-15T01:34:53;91920.59;;;5.46;91.16
12471;BME280;36499;46.484;13.832;2023-04-15T01:37:21;91917.75;;;5.54;90.99
12471;BME280;36499;46.484;13.832;2023-04-15T01:39:48;91918.94;;;5.52;91.21
12471;BME280;36499;46.484;13.832;2023-04-15T01:42:15;91924.53;;;5.55;91.39
12471;BME280;36499;46.484;13.832;2023-04-15T01:44:43;91916.59;;;5.50;91.20
12471;BME280;36499;46.484;13.832;2023-04-15T01:47:11;91921.41;;;5.47;91.63
12471;BME280;36499;46.484;13.832;2023-04-15T01:49:38;91914.00;;;5.50;91.41
12471;BME280;36499;46.484;13.832;2023-04-15T01:52:05;91916.59;;;5.50;91.46
12471;BME280;36499;46.484;13.832;2023-04-15T01:54:32;91920.34;;;5.54;90.86
12471;BME280;36499;46.484;13.832;2023-04-15T01:56:59;91916.75;;;5.55;91.07
12471;BME280;36499;46.484;13.832;2023-04-15T01:59:28;91918.13;;;5.58;90.93
12471;BME280;36499;46.484;13.832;2023-04-15T02:01:57;91926.94;;;5.50;91.00
12471;BME280;36499;46.484;13.832;2023-04-15T02:04:24;91929.22;;;5.40;90.90
12471;BME280;36499;46.484;13.832;2023-04-15T02:06:52;91932.06;;;5.25;91.39
12471;BME280;36499;46.484;13.832;2023-04-15T02:09:19;91930.50;;;5.24;92.12
12471;BME280;36499;46.484;13.832;2023-04-15T02:11:46;91937.88;;;5.21;92.78
12471;BME280;36499;46.484;13.832;2023-04-15T02:14:13;91934.94;;;5.17;92.68
12471;BME280;36499;46.484;13.832;2023-04-15T02:16:40;91932.66;;;5.27;92.15
12471;BME280;36499;46.484;13.832;2023-04-15T02:19:09;91936.63;;;5.30;92.27
12471;BME280;36499;46.484;13.832;2023-04-15T02:21:37;91932.97;;;5.38;92.40
12471;BME280;36499;46.484;13.832;2023-04-15T02:24:05;91927.00;;;5.44;91.96
12471;BME280;36499;46.484;13.832;2023-04-15T02:26:32;91927.56;;;5.46;92.05
12471;BME280;36499;46.484;13.832;2023-04-15T02:28:59;91920.53;;;5.53;91.75
12471;BME280;36499;46.484;13.832;2023-04-15T02:31:26;91920.72;;;5.58;91.84
12471;BME280;36499;46.484;13.832;2023-04-15T02:33:53;91920.47;;;5.59;91.48
12471;BME280;36499;46.484;13.832;2023-04-15T02:36:22;91920.28;;;5.61;91.64
12471;BME280;36499;46.484;13.832;2023-04-15T02:38:49;91929.19;;;5.65;92.00
12471;BME280;36499;46.484;13.832;2023-04-15T02:41:16;91918.84;;;5.65;91.20
12471;BME280;36499;46.484;13.832;2023-04-15T02:43:43;91920.59;;;5.71;90.76
12471;BME280;36499;46.484;13.832;2023-04-15T02:46:10;91918.84;;;5.65;90.63
12471;BME280;36499;46.484;13.832;2023-04-15T02:48:39;91915.47;;;5.64;90.81
12471;BME280;36499;46.484;13.832;2023-04-15T02:51:13;91923.75;;;5.48;91.04
12471;BME280;36499;46.484;13.832;2023-04-15T02:53:42;91921.03;;;5.43;91.36
12471;BME280;36499;46.484;13.832;2023-04-15T02:56:10;91926.22;;;5.37;91.42
12471;BME280;36499;46.484;13.832;2023-04-15T02:58:38;91922.22;;;5.41;91.31
12471;BME280;36499;46.484;13.832;2023-04-15T03:01:05;91921.91;;;5.30;92.25
12471;BME280;36499;46.484;13.832;2023-04-15T03:03:33;91922.75;;;5.24;92.06
12471;BME280;36499;46.484;13.832;2023-04-15T03:06:00;91920.13;;;5.31;92.33
12471;BME280;36499;46.484;13.832;2023-04-15T03:08:27;91916.28;;;5.40;92.06
12471;BME280;36499;46.484;13.832;2023-04-15T03:10:57;91911.44;;;5.50;91.66
12471;BME280;36499;46.484;13.832;2023-04-15T03:13:27;91915.97;;;5.55;91.84
12471;BME280;36499;46.484;13.832;2023-04-15T03:15:54;91913.53;;;5.60;91.11
12471;BME280;36499;46.484;13.832;2023-04-15T03:18:21;91910.75;;;5.61;91.49
12471;BME280;36499;46.484;13.832;2023-04-15T03:20:48;91913.88;;;5.63;91.39
12471;BME280;36499;46.484;13.832;2023-04-15T03:23:15;91914.13;;;5.62;91.22
12471;BME280;36499;46.484;13.832;2023-04-15T03:25:44;91915.19;;;5.54;91.21
12471;BME280;36499;46.484;13.832;2023-04-15T03:28:13;91914.38;;;5.54;91.61
12471;BME280;36499;46.484;13.832;2023-04-15T03:30:40;91908.78;;;5.57;91.49
12471;BME280;36499;46.484;13.832;2023-04-15T03:33:07;91906.72;;;5.65;91.39
12471;BME280;36499;46.484;13.832;2023-04-15T03:35:34;91913.25;;;5.68;91.56
12471;BME280;36499;46.484;13.832;2023-04-15T03:38:01;91909.06;;;5.73;91.15
12471;BME280;36499;46.484;13.832;2023-04-15T03:40:28;91907.03;;;5.75;90.89
12471;BME280;36499;46.484;13.832;2023-04-15T03:42:55;91912.19;;;5.75;90.85
12471;BME280;36499;46.484;13.832;2023-04-15T03:45:24;91910.59;;;5.74;91.07
12471;BME280;36499;46.484;13.832;2023-04-15T03:47:51;91908.81;;;5.75;90.90
12471;BME280;36499;46.484;13.832;2023-04-15T03:50:19;91914.00;;;5.75;91.28
12471;BME280;36499;46.484;13.832;2023-04-15T03:52:46;91905.03;;;5.77;91.14
12471;BME280;36499;46.484;13.832;2023-04-15T03:55:13;91901.28;;;5.73;90.75
12471;BME280;36499;46.484;13.832;2023-04-15T03:57:41;91911.03;;;5.71;91.09
12471;BME280;36499;46.484;13.832;2023-04-15T04:00:09;91912.63;;;5.72;91.21
12471;BME280;36499;46.484;13.832;2023-04-15T04:02:37;91912.25;;;5.69;90.35
12471;BME280;36499;46.484;13.832;2023-04-15T04:05:05;91922.81;;;5.67;90.80
12471;BME280;36499;46.484;13.832;2023-04-15T04:07:32;91921.25;;;5.66;91.08
12471;BME280;36499;46.484;13.832;2023-04-15T04:09:59;91923.97;;;5.71;90.91
12471;BME280;36499;46.484;13.832;2023-04-15T04:12:28;91917.25;;;5.70;91.09
12471;BME280;36499;46.484;13.832;2023-04-15T04:14:55;91917.81;;;5.72;91.34
12471;BME280;36499;46.484;13.832;2023-04-15T04:17:22;91916.81;;;5.73;90.84
12471;BME280;36499;46.484;13.832;2023-04-15T04:19:50;91910.84;;;5.73;91.20
12471;BME280;36499;46.484;13.832;2023-04-15T04:22:21;91917.59;;;5.74;90.65
12471;BME280;36499;46.484;13.832;2023-04-15T04:24:49;91914.41;;;5.72;90.64
12471;BME280;36499;46.484;13.832;2023-04-15T04:27:16;91925.34;;;5.74;90.83
12471;BME280;36499;46.484;13.832;2023-04-15T04:29:43;91927.28;;;5.78;90.77
12471;BME280;36499;46.484;13.832;2023-04-15T04:32:12;91925.28;;;5.80;90.79
12471;BME280;36499;46.484;13.832;2023-04-15T04:34:39;91932.84;;;5.82;90.75
12471;BME280;36499;46.484;13.832;2023-04-15T04:37:08;91933.22;;;5.86;90.38
12471;BME280;36499;46.484;13.832;2023-04-15T04:39:35;91932.25;;;5.80;90.53
12471;BME280;36499;46.484;13.832;2023-04-15T04:42:02;91931.47;;;5.79;90.17
12471;BME280;36499;46.484;13.832;2023-04-15T04:44:29;91936.88;;;5.78;90.24
12471;BME280;36499;46.484;13.832;2023-04-15T04:46:56;91941.25;;;5.77;90.75
12471;BME280;36499;46.484;13.832;2023-04-15T04:49:23;91937.06;;;5.76;90.90
12471;BME280;36499;46.484;13.832;2023-04-15T04:51:50;91935.63;;;5.80;91.02
12471;BME280;36499;46.484;13.832;2023-04-15T04:54:19;91938.22;;;5.80;90.84
12471;BME280;36499;46.484;13.832;2023-04-15T04:56:46;91937.00;;;5.83;90.88
12471;BME280;36499;46.484;13.832;2023-04-15T04:59:13;91936.00;;;5.84;91.19
12471;BME280;36499;46.484;13.832;2023-04-15T05:01:40;91934.22;;;5.85;91.25
12471;BME280;36499;46.484;13.832;2023-04-15T05:04:07;91942.16;;;5.83;91.10
12471;BME280;36499;46.484;13.832;2023-04-15T05:06:34;91939.19;;;5.86;91.00
12471;BME280;36499;46.484;13.832;2023-04-15T05:09:02;91943.34;;;5.87;90.89
12471;BME280;36499;46.484;13.832;2023-04-15T05:11:30;91946.94;;;5.86;90.78
12471;BME280;36499;46.484;13.832;2023-04-15T05:13:57;91948.09;;;5.90;91.19
12471;BME280;36499;46.484;13.832;2023-04-15T05:16:26;91951.72;;;5.89;91.17
12471;BME280;36499;46.484;13.832;2023-04-15T05:18:53;91948.91;;;5.91;91.08
12471;BME280;36499;46.484;13.832;2023-04-15T05:21:21;91951.66;;;5.96;91.10
12471;BME280;36499;46.484;13.832;2023-04-15T05:23:48;91949.06;;;5.96;90.83
12471;BME280;36499;46.484;13.832;2023-04-15T05:26:15;91956.47;;;5.92;90.71
12471;BME280;36499;46.484;13.832;2023-04-15T05:28:43;91948.94;;;5.84;90.36
12471;BME280;36499;46.484;13.832;2023-04-15T05:31:10;91957.75;;;5.76;90.70
12471;BME280;36499;46.484;13.832;2023-04-15T05:33:38;91953.81;;;5.74;91.19
12471;BME280;36499;46.484;13.832;2023-04-15T05:36:05;91952.16;;;5.79;90.94
12471;BME280;36499;46.484;13.832;2023-04-15T05:38:33;91960.06;;;5.85;91.54
12471;BME280;36499;46.484;13.832;2023-04-15T05:41:00;91954.91;;;5.85;90.97
12471;BME280;36499;46.484;13.832;2023-04-15T05:43:27;91950.56;;;5.78;91.63
12471;BME280;36499;46.484;13.832;2023-04-15T05:45:56;91962.50;;;5.79;91.13
12471;BME280;36499;46.484;13.832;2023-04-15T05:48:23;91955.09;;;5.83;91.80
12471;BME280;36499;46.484;13.832;2023-04-15T05:50:50;91953.91;;;5.86;91.33
12471;BME280;36499;46.484;13.832;2023-04-15T05:53:17;91964.66;;;5.89;91.52
12471;BME280;36499;46.484;13.832;2023-04-15T05:55:45;91962.25;;;5.88;91.22
12471;BME280;36499;46.484;13.832;2023-04-15T05:58:12;91965.56;;;5.95;91.78
12471;BME280;36499;46.484;13.832;2023-04-15T06:00:39;91964.94;;;5.99;91.53
12471;BME280;36499;46.484;13.832;2023-04-15T06:03:07;91964.69;;;6.07;91.29
12471;BME280;36499;46.484;13.832;2023-04-15T06:05:36;91964.25;;;6.10;91.34
12471;BME280;36499;46.484;13.832;2023-04-15T06:08:03;91960.03;;;6.16;91.01
12471;BME280;36499;46.484;13.832;2023-04-15T06:10:30;91964.16;;;6.17;91.31
12471;BME280;36499;46.484;13.832;2023-04-15T06:13:01;91965.34;;;6.21;91.26
12471;BME280;36499;46.484;13.832;2023-04-15T06:15:28;91966.50;;;6.25;90.84
12471;BME280;36499;46.484;13.832;2023-04-15T06:17:56;91967.44;;;6.31;90.93
12471;BME280;36499;46.484;13.832;2023-04-15T06:20:24;91963.63;;;6.33;90.78
12471;BME280;36499;46.484;13.832;2023-04-15T06:22:51;91968.72;;;6.40;91.66
12471;BME280;36499;46.484;13.832;2023-04-15T06:25:18;91963.22;;;6.72;93.55
12471;BME280;36499;46.484;13.832;2023-04-15T06:27:45;91961.28;;;6.98;92.41
12471;BME280;36499;46.484;13.832;2023-04-15T06:30:13;91969.03;;;7.16;90.51
12471;BME280;36499;46.484;13.832;2023-04-15T06:32:40;91968.13;;;7.40;88.91
12471;BME280;36499;46.484;13.832;2023-04-15T06:35:08;91966.91;;;7.54;88.56
12471;BME280;36499;46.484;13.832;2023-04-15T06:37:36;91959.72;;;7.56;85.97
12471;BME280;36499;46.484;13.832;2023-04-15T06:40:05;91960.72;;;7.55;84.39
12471;BME280;36499;46.484;13.832;2023-04-15T06:42:34;91964.63;;;7.46;84.44
12471;BME280;36499;46.484;13.832;2023-04-15T06:45:01;91958.53;;;7.41;84.92
12471;BME280;36499;46.484;13.832;2023-04-15T06:47:28;91964.38;;;7.36;85.24
12471;BME280;36499;46.484;13.832;2023-04-15T06:49:55;91964.94;;;7.38;85.13
12471;BME280;36499;46.484;13.832;2023-04-15T06:52:22;91964.38;;;7.36;85.59
12471;BME280;36499;46.484;13.832;2023-04-15T06:54:51;91965.03;;;7.32;85.40
12471;BME280;36499;46.484;13.832;2023-04-15T06:57:18;91963.03;;;7.34;85.78
12471;BME280;36499;46.484;13.832;2023-04-15T06:59:45;91972.81;;;7.32;85.50
12471;BME280;36499;46.484;13.832;2023-04-15T07:02:12;91970.00;;;7.33;85.77
12471;BME280;36499;46.484;13.832;2023-04-15T07:04:40;91966.41;;;7.34;85.66
12471;BME280;36499;46.484;13.832;2023-04-15T07:07:07;91967.19;;;7.35;85.97
12471;BME280;36499;46.484;13.832;2023-04-15T07:09:34;91972.59;;;7.33;85.97
12471;BME280;36499;46.484;13.832;2023-04-15T07:12:03;91975.09;;;7.40;85.81
12471;BME280;36499;46.484;13.832;2023-04-15T07:14:30;91976.44;;;7.42;86.08
12471;BME280;36499;46.484;13.832;2023-04-15T07:16:57;91979.03;;;7.42;85.81
12471;BME280;36499;46.484;13.832;2023-04-15T07:19:24;91980.63;;;7.43;85.73
12471;BME280;36499;46.484;13.832;2023-04-15T07:21:51;91984.00;;;7.44;85.70
12471;BME280;36499;46.484;13.832;2023-04-15T07:24:18;91984.81;;;7.44;85.01
12471;BME280;36499;46.484;13.832;2023-04-15T07:26:45;91988.75;;;7.47;85.24
12471;BME280;36499;46.484;13.832;2023-04-15T07:29:13;91986.75;;;7.49;85.30
12471;BME280;36499;46.484;13.832;2023-04-15T07:31:41;91995.31;;;7.49;85.31
12471;BME280;36499;46.484;13.832;2023-04-15T07:34:08;91999.56;;;7.44;84.99
12471;BME280;36499;46.484;13.832;2023-04-15T07:36:35;92004.66;;;7.50;84.93
12471;BME280;36499;46.484;13.832;2023-04-15T07:39:02;92002.31;;;7.49;85.43
12471;BME280;36499;46.484;13.832;2023-04-15T07:41:30;92004.44;;;7.52;84.94
12471;BME280;36499;46.484;13.832;2023-04-15T07:43:57;92002.22;;;7.55;84.19
12471;BME280;36499;46.484;13.832;2023-04-15T07:46:26;92009.78;;;7.57;84.24
12471;BME280;36499;46.484;13.832;2023-04-15T07:48:53;92009.19;;;7.55;83.54
12471;BME280;36499;46.484;13.832;2023-04-15T07:51:20;92011.22;;;7.53;83.57
12471;BME280;36499;46.484;13.832;2023-04-15T07:53:49;92016.63;;;7.51;83.72
12471;BME280;36499;46.484;13.832;2023-04-15T07:56:16;92016.19;;;7.54;83.59
12471;BME280;36499;46.484;13.832;2023-04-15T07:58:43;92011.94;;;7.60;84.01
12471;BME280;36499;46.484;13.832;2023-04-15T08:01:10;92019.06;;;7.64;83.32
12471;BME280;36499;46.484;13.832;2023-04-15T08:03:39;92025.59;;;7.67;83.61
12471;BME280;36499;46.484;13.832;2023-04-15T08:06:06;92026.38;;;7.67;83.12
12471;BME280;36499;46.484;13.832;2023-04-15T08:08:34;92023.69;;;7.74;84.01
12471;BME280;36499;46.484;13.832;2023-04-15T08:11:01;92025.63;;;7.79;83.25
12471;BME280;36499;46.484;13.832;2023-04-15T08:13:28;92026.97;;;7.81;83.02
12471;BME280;36499;46.484;13.832;2023-04-15T08:16:17;92028.91;;;7.86;82.51
12471;BME280;36499;46.484;13.832;2023-04-15T08:18:47;92035.09;;;7.85;82.51
12471;BME280;36499;46.484;13.832;2023-04-15T08:21:16;92036.25;;;7.89;82.15
12471;BME280;36499;46.484;13.832;2023-04-15T08:23:44;92034.91;;;7.98;81.89
12471;BME280;36499;46.484;13.832;2023-04-15T08:26:11;92037.63;;;8.03;81.28
12471;BME280;36499;46.484;13.832;2023-04-15T08:28:41;92044.75;;;8.07;81.70
12471;BME280;36499;46.484;13.832;2023-04-15T08:31:08;92041.59;;;8.05;81.11
12471;BME280;36499;46.484;13.832;2023-04-15T08:33:35;92045.09;;;8.11;81.33
12471;BME280;36499;46.484;13.832;2023-04-15T08:36:04;92049.28;;;8.12;81.71
12471;BME280;36499;46.484;13.832;2023-04-15T08:38:32;92049.63;;;8.15;82.17
12471;BME280;36499;46.484;13.832;2023-04-15T08:41:03;92048.81;;;8.15;82.59
12471;BME280;36499;46.484;13.832;2023-04-15T08:43:34;92052.44;;;8.26;81.72
12471;BME280;36499;46.484;13.832;2023-04-15T08:46:04;92049.56;;;8.34;81.46
12471;BME280;36499;46.484;13.832;2023-04-15T08:48:32;92051.28;;;8.40;81.88
12471;BME280;36499;46.484;13.832;2023-04-15T08:51:00;92056.69;;;8.38;80.40
12471;BME280;36499;46.484;13.832;2023-04-15T08:53:30;92055.88;;;8.38;80.23
12471;BME280;36499;46.484;13.832;2023-04-15T08:56:03;92057.34;;;8.45;80.02
12471;BME280;36499;46.484;13.832;2023-04-15T08:58:32;92053.28;;;8.49;79.79
12471;BME280;36499;46.484;13.832;2023-04-15T09:00:59;92060.53;;;8.47;80.13
12471;BME280;36499;46.484;13.832;2023-04-15T09:03:27;92067.31;;;8.48;78.61
12471;BME280;36499;46.484;13.832;2023-04-15T09:05:56;92063.00;;;8.54;79.74
12471;BME280;36499;46.484;13.832;2023-04-15T09:08:23;92073.97;;;8.56;79.71
12471;BME280;36499;46.484;13.832;2023-04-15T09:10:53;92077.59;;;8.55;79.25
12471;BME280;36499;46.484;13.832;2023-04-15T09:13:20;92078.81;;;8.52;79.51
12471;BME280;36499;46.484;13.832;2023-04-15T09:15:48;92077.34;;;8.56;78.93
12471;BME280;36499;46.484;13.832;2023-04-15T09:18:27;92079.38;;;8.54;78.75
12471;BME280;36499;46.484;13.832;2023-04-15T09:20:55;92078.03;;;8.52;79.35
12471;BME280;36499;46.484;13.832;2023-04-15T09:23:22;92080.28;;;8.60;79.27
12471;BME280;36499;46.484;13.832;2023-04-15T09:25:51;92085.06;;;8.63;78.58
12471;BME280;36499;46.484;13.832;2023-04-15T09:28:24;92097.91;;;8.58;78.62
12471;BME280;36499;46.484;13.832;2023-04-15T09:30:55;92094.19;;;8.65;79.12
12471;BME280;36499;46.484;13.832;2023-04-15T09:33:23;92085.94;;;8.68;79.14
12471;BME280;36499;46.484;13.832;2023-04-15T09:35:59;92095.31;;;8.70;78.72
12471;BME280;36499;46.484;13.832;2023-04-15T09:38:27;92102.91;;;8.71;78.56
12471;BME280;36499;46.484;13.832;2023-04-15T09:40:57;92093.84;;;8.74;78.03
12471;BME280;36499;46.484;13.832;2023-04-15T09:43:37;92096.00;;;8.77;79.31
12471;BME280;36499;46.484;13.832;2023-04-15T09:46:05;92098.38;;;8.78;78.67
12471;BME280;36499;46.484;13.832;2023-04-15T09:48:32;92103.91;;;8.82;78.34
12471;BME280;36499;46.484;13.832;2023-04-15T09:51:00;92106.19;;;8.78;78.07
12471;BME280;36499;46.484;13.832;2023-04-15T09:53:28;92099.28;;;8.84;77.39
12471;BME280;36499;46.484;13.832;2023-04-15T09:55:58;92107.06;;;8.84;77.90
12471;BME280;36499;46.484;13.832;2023-04-15T09:58:28;92102.22;;;8.87;78.70
12471;BME280;36499;46.484;13.832;2023-04-15T10:00:58;92103.91;;;8.93;78.22
12471;BME280;36499;46.484;13.832;2023-04-15T10:03:29;92107.41;;;8.99;78.51
12471;BME280;36499;46.484;13.832;2023-04-15T10:05:59;92104.81;;;8.99;77.85
12471;BME280;36499;46.484;13.832;2023-04-15T10:08:31;92107.53;;;9.04;77.46
12471;BME280;36499;46.484;13.832;2023-04-15T10:11:01;92107.31;;;9.05;78.36
12471;BME280;36499;46.484;13.832;2023-04-15T10:13:31;92110.47;;;9.07;78.66
12471;BME280;36499;46.484;13.832;2023-04-15T10:16:05;92108.53;;;9.14;78.29
12471;BME280;36499;46.484;13.832;2023-04-15T10:18:37;92109.44;;;9.20;78.30
12471;BME280;36499;46.484;13.832;2023-04-15T10:21:07;92103.09;;;9.28;78.53
12471;BME280;36499;46.484;13.832;2023-04-15T10:23:35;92105.00;;;9.32;79.17
12471;BME280;36499;46.484;13.832;2023-04-15T10:26:05;92109.44;;;9.32;78.27
12471;BME280;36499;46.484;13.832;2023-04-15T10:28:34;92108.28;;;9.39;77.86
12471;BME280;36499;46.484;13.832;2023-04-15T10:31:01;92101.59;;;9.43;76.60
12471;BME280;36499;46.484;13.832;2023-04-15T10:33:31;92102.25;;;9.50;77.46
12471;BME280;36499;46.484;13.832;2023-04-15T10:35:59;92098.72;;;9.56;76.25
12471;BME280;36499;46.484;13.832;2023-04-15T10:38:37;92093.38;;;9.63;75.45
12471;BME280;36499;46.484;13.832;2023-04-15T10:41:15;92094.75;;;9.66;74.60
12471;BME280;36499;46.484;13.832;2023-04-15T10:43:49;92097.75;;;9.74;73.83
12471;BME280;36499;46.484;13.832;2023-04-15T10:46:34;92094.56;;;9.84;74.53
12471;BME280;36499;46.484;13.832;2023-04-15T10:49:07;92098.41;;;9.93;74.02
12471;BME280;36499;46.484;13.832;2023-04-15T10:51:39;92100.84;;;9.99;72.90
12471;BME280;36499;46.484;13.832;2023-04-15T10:54:12;92095.72;;;10.04;70.83
12471;BME280;36499;46.484;13.832;2023-04-15T10:56:43;92103.41;;;10.11;69.27
12471;BME280;36499;46.484;13.832;2023-04-15T10:59:10;92089.78;;;9.92;67.37
12471;BME280;36499;46.484;13.832;2023-04-15T11:01:55;92096.13;;;10.13;69.62
12471;BME280;36499;46.484;13.832;2023-04-15T11:04:54;92103.50;;;10.16;70.42
12471;BME280;36499;46.484;13.832;2023-04-15T11:07:40;92091.38;;;10.22;68.54
12471;BME280;36499;46.484;13.832;2023-04-15T11:10:50;92085.53;;;10.31;68.18
12471;BME280;36499;46.484;13.832;2023-04-15T11:13:27;92091.41;;;10.38;68.74
12471;BME280;36499;46.484;13.832;2023-04-15T11:16:00;92091.00;;;10.46;67.96
12471;BME280;36499;46.484;13.832;2023-04-15T11:18:33;92086.75;;;10.57;68.34
12471;BME280;36499;46.484;13.832;2023-04-15T11:21:03;92087.78;;;10.56;66.13
12471;BME280;36499;46.484;13.832;2023-04-15T11:23:38;92084.94;;;10.57;65.14
12471;BME280;36499;46.484;13.832;2023-04-15T11:26:08;92085.56;;;10.48;64.38
12471;BME280;36499;46.484;13.832;2023-04-15T11:28:39;92087.06;;;10.61;65.78
12471;BME280;36499;46.484;13.832;2023-04-15T11:31:09;92083.28;;;10.68;64.77
12471;BME280;36499;46.484;13.832;2023-04-15T11:33:43;92088.72;;;10.67;65.54
12471;BME280;36499;46.484;13.832;2023-04-15T11:36:11;92084.91;;;10.74;63.17
12471;BME280;36499;46.484;13.832;2023-04-15T11:38:42;92090.41;;;10.73;62.67
12471;BME280;36499;46.484;13.832;2023-04-15T11:41:11;92085.78;;;10.63;62.91
12471;BME280;36499;46.484;13.832;2023-04-15T11:43:39;92084.38;;;10.55;63.07
12471;BME280;36499;46.484;13.832;2023-04-15T11:46:07;92082.47;;;10.51;62.52
12471;BME280;36499;46.484;13.832;2023-04-15T11:48:35;92082.34;;;10.57;64.01
12471;BME280;36499;46.484;13.832;2023-04-15T11:51:05;92082.16;;;10.64;64.24
12471;BME280;36499;46.484;13.832;2023-04-15T11:53:38;92084.06;;;10.69;63.79
12471;BME280;36499;46.484;13.832;2023-04-15T11:56:07;92084.13;;;10.74;61.54
12471;BME280;36499;46.484;13.832;2023-04-15T11:58:36;92074.09;;;10.82;62.44
12471;BME280;36499;46.484;13.832;2023-04-15T12:01:06;92081.34;;;10.97;61.44
12471;BME280;36499;46.484;13.832;2023-04-15T12:03:38;92079.31;;;10.99;59.83
12471;BME280;36499;46.484;13.832;2023-04-15T12:06:17;92078.56;;;11.03;59.52
12471;BME280;36499;46.484;13.832;2023-04-15T12:09:01;92078.53;;;11.20;62.16
12471;BME280;36499;46.484;13.832;2023-04-15T12:11:34;92078.13;;;11.28;60.18
12471;BME280;36499;46.484;13.832;2023-04-15T12:14:06;92070.53;;;11.27;58.98
12471;BME280;36499;46.484;13.832;2023-04-15T12:16:36;92073.03;;;11.38;58.78
12471;BME280;36499;46.484;13.832;2023-04-15T12:19:06;92075.22;;;11.46;58.28
12471;BME280;36499;46.484;13.832;2023-04-15T12:21:37;92076.31;;;11.50;57.96
12471;BME280;36499;46.484;13.832;2023-04-15T12:24:06;92076.13;;;11.57;58.45
12471;BME280;36499;46.484;13.832;2023-04-15T12:26:36;92079.91;;;11.44;56.88
12471;BME280;36499;46.484;13.832;2023-04-15T12:29:06;92073.94;;;11.49;56.46
12471;BME280;36499;46.484;13.832;2023-04-15T12:31:35;92076.44;;;11.61;58.10
12471;BME280;36499;46.484;13.832;2023-04-15T12:34:06;92078.56;;;11.64;57.08
12471;BME280;36499;46.484;13.832;2023-04-15T12:36:34;92075.66;;;11.60;55.39
12471;BME280;36499;46.484;13.832;2023-04-15T12:39:02;92078.75;;;11.35;55.42
12471;BME280;36499;46.484;13.832;2023-04-15T12:41:30;92083.94;;;10.97;54.53
12471;BME280;36499;46.484;13.832;2023-04-15T12:43:57;92080.72;;;10.90;55.76
12471;BME280;36499;46.484;13.832;2023-04-15T12:46:25;92084.44;;;11.11;55.58
12471;BME280;36499;46.484;13.832;2023-04-15T12:48:53;92078.13;;;10.90;57.11
12471;BME280;36499;46.484;13.832;2023-04-15T12:51:20;92085.47;;;10.59;54.46
12471;BME280;36499;46.484;13.832;2023-04-15T12:53:47;92090.22;;;10.63;54.02
12471;BME280;36499;46.484;13.832;2023-04-15T12:56:15;92094.25;;;10.87;54.20
12471;BME280;36499;46.484;13.832;2023-04-15T12:58:42;92088.47;;;10.85;54.69
12471;BME280;36499;46.484;13.832;2023-04-15T13:01:10;92090.69;;;10.93;54.31
12471;BME280;36499;46.484;13.832;2023-04-15T13:03:37;92092.25;;;11.11;54.31
12471;BME280;36499;46.484;13.832;2023-04-15T13:06:05;92084.84;;;10.86;54.18